createdAt,value
2023-02-27T00:01:44.848Z,4
2023-02-27T00:02:59.107Z,4
2023-02-27T00:04:13.196Z,4
2023-02-27T00:06:41.343Z,4
2023-02-27T00:07:55.506Z,4
2023-02-27T00:09:09.754Z,5
2023-02-27T00:10:23.884Z,4
2023-02-27T00:12:52.010Z,4
2023-02-27T00:14:06.195Z,5
2023-02-27T00:15:20.308Z,4
2023-02-27T00:17:48.604Z,4
2023-02-27T00:19:02.756Z,5
2023-02-27T00:20:16.838Z,5
2023-02-27T00:22:45.101Z,5
2023-02-27T00:23:59.293Z,5
2023-02-27T00:25:13.368Z,4
2023-02-27T00:27:41.671Z,4
2023-02-27T00:28:55.761Z,5
2023-02-27T00:30:10.002Z,5
2023-02-27T00:31:24.268Z,4
2023-02-27T00:33:52.309Z,5
2023-02-27T00:35:06.446Z,5
2023-02-27T00:36:20.586Z,5
2023-02-27T00:38:48.868Z,4
2023-02-27T00:40:02.987Z,4
2023-02-27T00:41:17.079Z,4
2023-02-27T00:43:45.368Z,4
2023-02-27T00:44:59.548Z,4
2023-02-27T00:46:13.697Z,4
2023-02-27T00:48:41.893Z,4
2023-02-27T00:49:56.030Z,4
2023-02-27T00:51:10.201Z,4
2023-02-27T00:52:24.366Z,4
2023-02-27T00:54:52.576Z,5
2023-02-27T00:56:06.688Z,4
2023-02-27T00:57:20.802Z,4
2023-02-27T00:59:49.103Z,5
2023-02-27T01:01:03.351Z,4
2023-02-27T01:02:17.424Z,4
2023-02-27T01:04:45.623Z,4
2023-02-27T01:05:59.747Z,5
2023-02-27T01:07:13.922Z,4
2023-02-27T01:08:28.046Z,4
2023-02-27T01:09:42.218Z,5
2023-02-27T01:10:56.272Z,4
2023-02-27T01:12:10.409Z,4
2023-02-27T01:13:24.607Z,4
2023-02-27T01:15:52.900Z,4
2023-02-27T01:17:06.948Z,4
2023-02-27T01:18:21.041Z,4
2023-02-27T01:28:14.337Z,4
2023-02-27T01:30:42.508Z,5
2023-02-27T01:31:56.693Z,4
2023-02-27T01:33:10.675Z,5
2023-02-27T01:36:53.106Z,4
2023-02-27T01:38:07.244Z,4
2023-02-27T01:39:21.308Z,4
2023-02-27T01:41:49.603Z,4
2023-02-27T01:43:03.721Z,4
2023-02-27T01:44:17.928Z,4
2023-02-27T01:46:46.136Z,4
2023-02-27T01:48:00.435Z,5
2023-02-27T01:49:14.385Z,4
2023-02-27T01:51:42.770Z,4
2023-02-27T01:52:56.789Z,5
2023-02-27T01:54:11.014Z,5
2023-02-27T01:55:25.046Z,5
2023-02-27T01:57:53.347Z,5
2023-02-27T01:59:07.477Z,4
2023-02-27T02:00:21.555Z,5
2023-02-27T02:02:49.867Z,4
2023-02-27T02:04:04.029Z,5
2023-02-27T02:05:18.112Z,5
2023-02-27T02:07:46.372Z,5
2023-02-27T02:09:00.502Z,4
2023-02-27T02:10:14.645Z,5
2023-02-27T02:12:42.931Z,4
2023-02-27T02:13:57.054Z,4
2023-02-27T02:15:11.203Z,5
2023-02-27T02:16:25.383Z,5
2023-02-27T02:18:53.592Z,5
2023-02-27T02:20:07.838Z,4
2023-02-27T02:21:21.868Z,5
2023-02-27T02:23:50.119Z,5
2023-02-27T02:25:04.359Z,5
2023-02-27T02:26:18.606Z,5
2023-02-27T02:28:46.687Z,4
2023-02-27T02:30:00.750Z,4
2023-02-27T02:31:15.050Z,5
2023-02-27T02:33:43.185Z,5
2023-02-27T02:34:57.323Z,4
2023-02-27T02:36:11.521Z,4
2023-02-27T02:37:25.589Z,4
2023-02-27T02:39:53.914Z,5
2023-02-27T02:41:08.058Z,5
2023-02-27T02:42:22.201Z,5
2023-02-27T02:44:50.394Z,4
2023-02-27T02:46:04.559Z,4
2023-02-27T02:47:18.759Z,4
2023-02-27T02:49:47.014Z,5
2023-02-27T02:51:01.035Z,4
2023-02-27T02:52:15.212Z,4
2023-02-27T02:54:43.449Z,5
2023-02-27T02:55:57.603Z,4
2023-02-27T02:57:11.717Z,5
2023-02-27T02:59:39.969Z,4
2023-02-27T03:00:54.151Z,5
2023-02-27T03:02:08.311Z,4
2023-02-27T03:03:22.433Z,4
2023-02-27T03:05:50.617Z,4
2023-02-27T03:07:04.779Z,4
2023-02-27T03:08:19.072Z,4
2023-02-27T03:10:47.284Z,4
2023-02-27T03:12:01.299Z,4
2023-02-27T03:13:15.444Z,4
2023-02-27T03:15:43.747Z,5
2023-02-27T03:16:57.862Z,4
2023-02-27T03:18:11.987Z,4
2023-02-27T03:19:26.105Z,4
2023-02-27T03:21:54.369Z,4
2023-02-27T03:23:08.506Z,4
2023-02-27T03:24:22.655Z,5
2023-02-27T03:26:50.876Z,5
2023-02-27T03:28:05.025Z,5
2023-02-27T03:29:19.197Z,5
2023-02-27T03:31:47.645Z,5
2023-02-27T03:33:01.531Z,5
2023-02-27T03:34:15.687Z,5
2023-02-27T03:36:43.961Z,5
2023-02-27T03:37:58.183Z,5
2023-02-27T03:39:12.303Z,5
2023-02-27T03:41:40.460Z,5
2023-02-27T03:42:54.618Z,5
2023-02-27T03:44:08.770Z,5
2023-02-27T03:45:22.911Z,5
2023-02-27T03:47:51.164Z,5
2023-02-27T03:49:05.282Z,4
2023-02-27T03:50:19.388Z,5
2023-02-27T03:52:47.684Z,4
2023-02-27T03:54:01.837Z,5
2023-02-27T03:55:15.937Z,4
2023-02-27T03:57:44.284Z,4
2023-02-27T03:58:58.401Z,4
2023-02-27T04:00:12.470Z,4
2023-02-27T04:02:40.761Z,4
2023-02-27T04:03:54.901Z,4
2023-02-27T04:05:08.994Z,4
2023-02-27T04:06:23.174Z,5
2023-02-27T04:08:51.397Z,5
2023-02-27T04:10:05.537Z,4
2023-02-27T04:11:19.650Z,5
2023-02-27T04:13:47.952Z,5
2023-02-27T04:15:02.049Z,4
2023-02-27T04:16:16.249Z,4
2023-02-27T04:18:44.573Z,5
2023-02-27T04:19:58.645Z,4
2023-02-27T04:21:12.790Z,4
2023-02-27T04:23:41.053Z,4
2023-02-27T04:24:55.129Z,4
2023-02-27T04:26:09.370Z,4
2023-02-27T04:27:23.491Z,4
2023-02-27T04:29:51.744Z,4
2023-02-27T04:31:05.900Z,4
2023-02-27T04:32:20.232Z,4
2023-02-27T04:34:48.303Z,4
2023-02-27T04:36:02.326Z,4
2023-02-27T04:37:16.481Z,4
2023-02-27T04:39:44.720Z,4
2023-02-27T04:40:58.911Z,4
2023-02-27T04:42:13.048Z,5
2023-02-27T04:44:49.525Z,4
2023-02-27T04:46:03.854Z,4
2023-02-27T04:47:17.785Z,4
2023-02-27T04:49:45.971Z,4
2023-02-27T04:51:00.168Z,4
2023-02-27T04:52:14.273Z,5
2023-02-27T04:54:42.585Z,4
2023-02-27T04:55:56.646Z,4
2023-02-27T04:57:10.774Z,5
2023-02-27T04:58:25.389Z,4
2023-02-27T05:00:53.300Z,4
2023-02-27T05:02:07.595Z,4
2023-02-27T05:03:21.452Z,4
2023-02-27T05:05:49.734Z,4
2023-02-27T05:07:03.876Z,4
2023-02-27T05:08:17.980Z,4
2023-02-27T05:10:46.248Z,4
2023-02-27T05:12:00.370Z,4
2023-02-27T05:13:14.527Z,4
2023-02-27T05:15:42.867Z,4
2023-02-27T05:16:56.954Z,4
2023-02-27T05:18:11.070Z,4
2023-02-27T05:19:25.181Z,4
2023-02-27T05:21:53.538Z,4
2023-02-27T05:23:07.582Z,4
2023-02-27T05:24:21.725Z,5
2023-02-27T05:26:50.006Z,4
2023-02-27T05:28:04.127Z,4
2023-02-27T05:29:18.255Z,5
2023-02-27T05:31:46.668Z,4
2023-02-27T05:33:00.662Z,4
2023-02-27T05:34:14.781Z,4
2023-02-27T05:36:43.047Z,4
2023-02-27T05:37:57.182Z,4
2023-02-27T05:39:11.268Z,4
2023-02-27T05:40:25.431Z,4
2023-02-27T05:42:53.706Z,4
2023-02-27T05:44:07.822Z,4
2023-02-27T05:45:21.959Z,4
2023-02-27T05:47:50.232Z,4
2023-02-27T05:49:04.479Z,4
2023-02-27T05:50:18.789Z,5
2023-02-27T05:52:46.772Z,4
2023-02-27T05:54:00.861Z,4
2023-02-27T05:55:16.274Z,5
2023-02-27T05:57:43.346Z,4
2023-02-27T05:58:57.423Z,4
2023-02-27T06:00:11.579Z,4
2023-02-27T06:01:25.681Z,4
2023-02-27T06:03:54.012Z,5
2023-02-27T06:05:08.223Z,5
2023-02-27T06:06:22.215Z,5
2023-02-27T06:08:50.482Z,5
2023-02-27T06:10:04.624Z,5
2023-02-27T06:11:18.823Z,5
2023-02-27T06:13:47.105Z,4
2023-02-27T06:15:01.133Z,4
2023-02-27T06:16:15.343Z,5
2023-02-27T06:18:43.669Z,4
2023-02-27T06:19:57.706Z,4
2023-02-27T06:21:11.849Z,4
2023-02-27T06:22:25.963Z,4
2023-02-27T06:24:54.217Z,4
2023-02-27T06:26:08.369Z,4
2023-02-27T06:27:22.513Z,5
2023-02-27T06:29:50.767Z,4
2023-02-27T06:31:04.898Z,4
2023-02-27T06:32:19.363Z,4
2023-02-27T06:34:47.335Z,4
2023-02-27T06:36:01.419Z,4
2023-02-27T06:37:15.580Z,4
2023-02-27T06:39:43.798Z,4
2023-02-27T06:40:58.028Z,4
2023-02-27T06:42:12.082Z,4
2023-02-27T06:43:26.228Z,4
2023-02-27T06:45:54.623Z,4
2023-02-27T06:47:08.626Z,4
2023-02-27T06:48:22.741Z,4
2023-02-27T06:50:50.973Z,4
2023-02-27T06:52:05.148Z,4
2023-02-27T06:53:19.395Z,4
2023-02-27T06:55:47.519Z,4
2023-02-27T06:57:01.649Z,4
2023-02-27T06:58:15.821Z,4
2023-02-27T07:00:44.129Z,4
2023-02-27T07:01:58.256Z,4
2023-02-27T07:03:12.337Z,3
2023-02-27T07:05:40.598Z,4
2023-02-27T07:07:33.394Z,4
2023-02-27T07:08:08.935Z,4
2023-02-27T07:09:23.170Z,4
2023-02-27T07:11:51.236Z,4
2023-02-27T07:13:05.375Z,4
2023-02-27T07:14:19.542Z,3
2023-02-27T07:15:33.751Z,4
2023-02-27T07:16:47.802Z,3
2023-02-27T07:18:01.947Z,4
2023-02-27T07:19:16.113Z,3
2023-02-27T07:21:44.314Z,3
2023-02-27T07:22:58.485Z,4
2023-02-27T07:24:12.661Z,4
2023-02-27T07:26:40.818Z,4
2023-02-27T07:27:54.985Z,5
2023-02-27T07:29:09.196Z,4
2023-02-27T07:30:23.323Z,4
2023-02-27T07:32:51.503Z,4
2023-02-27T07:34:05.663Z,4
2023-02-27T07:35:19.743Z,4
2023-02-27T07:37:48.148Z,4
2023-02-27T07:39:02.178Z,4
2023-02-27T07:40:16.322Z,4
2023-02-27T07:42:44.568Z,4
2023-02-27T07:43:58.761Z,4
2023-02-27T07:45:12.838Z,4
2023-02-27T07:46:27.575Z,4
2023-02-27T07:47:41.120Z,4
2023-02-27T07:48:55.274Z,4
2023-02-27T07:50:09.438Z,3
2023-02-27T07:51:23.564Z,3
2023-02-27T07:53:51.781Z,3
2023-02-27T07:55:05.976Z,4
2023-02-27T07:56:20.040Z,3
2023-02-27T07:58:48.386Z,3
2023-02-27T08:00:02.553Z,4
2023-02-27T08:01:16.588Z,4
2023-02-27T08:03:44.877Z,3
2023-02-27T08:04:59.100Z,3
2023-02-27T08:06:13.106Z,3
2023-02-27T08:08:41.365Z,3
2023-02-27T08:09:55.517Z,4
2023-02-27T08:11:09.629Z,3
2023-02-27T08:12:23.800Z,3
2023-02-27T08:14:52.042Z,3
2023-02-27T08:17:20.294Z,3
2023-02-27T08:19:48.644Z,3
2023-02-27T08:21:02.758Z,3
2023-02-27T08:22:16.847Z,3
2023-02-27T08:24:45.128Z,3
2023-02-27T08:25:59.313Z,4
2023-02-27T08:27:13.358Z,4
2023-02-27T08:29:41.651Z,3
2023-02-27T08:30:55.760Z,3
2023-02-27T08:32:10.044Z,4
2023-02-27T08:33:24.043Z,3
2023-02-27T08:35:52.438Z,3
2023-02-27T08:37:06.422Z,3
2023-02-27T08:38:20.541Z,3
2023-02-27T08:40:48.819Z,3
2023-02-27T08:42:02.966Z,3
2023-02-27T08:43:17.157Z,3
2023-02-27T08:45:45.410Z,3
2023-02-27T08:46:59.491Z,3
2023-02-27T08:48:13.728Z,3
2023-02-27T08:50:41.896Z,3
2023-02-27T08:51:56.050Z,3
2023-02-27T08:53:10.174Z,3
2023-02-27T08:54:24.300Z,3
2023-02-27T08:56:52.640Z,3
2023-02-27T08:58:06.684Z,3
2023-02-27T08:59:20.807Z,3
2023-02-27T09:01:49.134Z,3
2023-02-27T09:03:03.264Z,3
2023-02-27T09:04:17.371Z,4
2023-02-27T09:06:45.660Z,4
2023-02-27T09:07:59.792Z,4
2023-02-27T09:09:13.923Z,3
2023-02-27T09:11:42.231Z,4
2023-02-27T09:12:56.293Z,4
2023-02-27T09:14:10.440Z,4
2023-02-27T09:15:24.579Z,3
2023-02-27T09:17:52.942Z,12
2023-02-27T09:19:07.068Z,10
2023-02-27T09:20:21.071Z,8
2023-02-27T09:22:49.444Z,6
2023-02-27T09:24:13.704Z,4
2023-02-27T09:25:17.742Z,5
2023-02-27T09:27:45.881Z,8
2023-02-27T09:29:00.037Z,5
2023-02-27T09:30:14.182Z,5
2023-02-27T09:32:42.470Z,7
2023-02-27T09:33:56.571Z,5
2023-02-27T09:35:10.666Z,3
2023-02-27T09:36:24.884Z,3
2023-02-27T09:38:53.122Z,4
2023-02-27T09:40:07.269Z,5
2023-02-27T09:41:21.358Z,4
2023-02-27T09:43:49.622Z,5
2023-02-27T09:45:05.961Z,3
2023-02-27T09:46:18.112Z,3
2023-02-27T09:48:46.151Z,3
2023-02-27T09:50:00.382Z,3
2023-02-27T09:51:14.518Z,3
2023-02-27T09:53:42.659Z,7
2023-02-27T09:54:56.792Z,9
2023-02-27T09:56:10.913Z,5
2023-02-27T09:57:25.102Z,5
2023-02-27T09:59:53.354Z,3
2023-02-27T10:01:07.546Z,4
2023-02-27T10:02:21.620Z,2
2023-02-27T10:04:49.912Z,7
2023-02-27T10:06:05.656Z,3
2023-02-27T10:07:18.191Z,3
2023-02-27T10:09:46.503Z,2
2023-02-27T10:11:00.525Z,2
2023-02-27T10:12:14.662Z,2
2023-02-27T10:14:42.938Z,2
2023-02-27T10:15:57.097Z,2
2023-02-27T10:17:11.195Z,3
2023-02-27T10:18:29.047Z,3
2023-02-27T10:20:53.612Z,3
2023-02-27T10:22:07.815Z,3
2023-02-27T10:23:21.866Z,3
2023-02-27T10:25:50.162Z,2
2023-02-27T10:27:04.242Z,3
2023-02-27T10:28:18.433Z,3
2023-02-27T10:30:46.778Z,2
2023-02-27T10:32:00.921Z,2
2023-02-27T10:33:14.922Z,2
2023-02-27T10:35:43.374Z,2
2023-02-27T10:36:57.325Z,2
2023-02-27T10:38:11.558Z,2
2023-02-27T10:40:39.818Z,2
2023-02-27T10:41:53.952Z,2
2023-02-27T10:43:08.091Z,2
2023-02-27T10:44:22.229Z,2
2023-02-27T10:46:52.044Z,2
2023-02-27T10:48:04.514Z,2
2023-02-27T10:49:19.298Z,2
2023-02-27T10:51:46.956Z,4
2023-02-27T10:53:01.064Z,5
2023-02-27T10:54:15.241Z,6
2023-02-27T10:56:43.523Z,2
2023-02-27T10:57:57.596Z,3
2023-02-27T10:59:11.762Z,4
2023-02-27T11:00:25.849Z,4
2023-02-27T11:02:54.181Z,4
2023-02-27T11:04:08.315Z,5
2023-02-27T11:05:22.387Z,3
2023-02-27T11:07:50.699Z,3
2023-02-27T11:09:04.770Z,2
2023-02-27T11:10:19.118Z,2
2023-02-27T11:12:47.291Z,3
2023-02-27T11:14:01.501Z,2
2023-02-27T11:15:15.452Z,3
2023-02-27T11:17:43.745Z,3
2023-02-27T11:18:57.866Z,3
2023-02-27T11:20:11.992Z,3
2023-02-27T11:21:26.706Z,1
2023-02-27T11:23:54.409Z,5
2023-02-27T11:25:08.562Z,4
2023-02-27T11:26:22.722Z,4
2023-02-27T11:28:50.963Z,2
2023-02-27T11:30:05.059Z,2
2023-02-27T11:31:19.525Z,2
2023-02-27T11:33:47.450Z,2
2023-02-27T11:35:01.652Z,2
2023-02-27T11:36:17.836Z,1
2023-02-27T11:38:44.072Z,2
2023-02-27T11:39:58.099Z,1
2023-02-27T11:41:12.267Z,1
2023-02-27T11:43:40.501Z,2
2023-02-27T11:44:54.751Z,1
2023-02-27T11:46:23.564Z,1
2023-02-27T11:47:23.145Z,1
2023-02-27T11:49:51.198Z,1
2023-02-27T11:51:05.332Z,1
2023-02-27T11:52:19.508Z,1
2023-02-27T11:54:47.790Z,3
2023-02-27T11:56:01.863Z,1
2023-02-27T11:57:15.962Z,2
2023-02-27T11:59:44.289Z,1
2023-02-27T12:00:58.379Z,1
2023-02-27T12:02:12.503Z,1
2023-02-27T12:04:40.766Z,1
2023-02-27T12:05:54.911Z,4
2023-02-27T12:07:09.108Z,1
2023-02-27T12:08:23.269Z,1
2023-02-27T12:10:52.100Z,2
2023-02-27T12:12:05.556Z,1
2023-02-27T12:13:19.732Z,1
2023-02-27T12:15:48.055Z,1
2023-02-27T12:17:02.137Z,1
2023-02-27T12:18:16.250Z,1
2023-02-27T12:20:44.547Z,1
2023-02-27T12:21:58.628Z,2
2023-02-27T12:23:12.823Z,2
2023-02-27T12:24:26.958Z,1
2023-02-27T12:25:41.096Z,3
2023-02-27T12:26:55.162Z,2
2023-02-27T12:28:09.307Z,2
2023-02-27T12:29:23.428Z,3
2023-02-27T12:31:51.850Z,2
2023-02-27T12:33:05.822Z,2
2023-02-27T12:34:19.967Z,3
2023-02-27T12:36:48.320Z,1
2023-02-27T12:38:02.372Z,2
2023-02-27T12:39:16.500Z,1
2023-02-27T12:41:44.772Z,2
2023-02-27T12:42:58.917Z,1
2023-02-27T12:44:13.062Z,1
2023-02-27T12:46:41.360Z,1
2023-02-27T12:47:55.411Z,1
2023-02-27T12:49:11.436Z,1
2023-02-27T12:50:23.716Z,1
2023-02-27T12:52:51.927Z,1
2023-02-27T12:54:06.090Z,1
2023-02-27T12:55:20.192Z,1
2023-02-27T12:57:48.552Z,1
2023-02-27T12:59:02.696Z,2
2023-02-27T13:00:16.747Z,1
2023-02-27T13:02:45.063Z,1
2023-02-27T13:03:59.184Z,1
2023-02-27T13:05:13.290Z,1
2023-02-27T13:07:41.535Z,1
2023-02-27T13:08:55.713Z,2
2023-02-27T13:10:09.948Z,2
2023-02-27T13:11:24.000Z,7
2023-02-27T13:13:52.210Z,4
2023-02-27T13:15:06.425Z,2
2023-02-27T13:16:20.497Z,3
2023-02-27T13:18:48.794Z,3
2023-02-27T13:20:02.905Z,3
2023-02-27T13:21:17.098Z,3
2023-02-27T13:23:45.301Z,1
2023-02-27T13:24:59.497Z,1
2023-02-27T13:26:13.571Z,2
2023-02-27T13:28:41.835Z,4
2023-02-27T13:29:55.974Z,8
2023-02-27T13:31:10.189Z,5
2023-02-27T13:32:32.657Z,4
2023-02-27T13:34:52.537Z,9
2023-02-27T13:36:06.866Z,2
2023-02-27T13:37:20.799Z,1
2023-02-27T13:39:49.057Z,1
2023-02-27T13:41:03.391Z,1
2023-02-27T13:42:17.324Z,2
2023-02-27T13:44:45.548Z,1
2023-02-27T13:45:59.809Z,1
2023-02-27T13:47:13.839Z,1
2023-02-27T13:48:27.943Z,1
2023-02-27T13:49:42.146Z,1
2023-02-27T13:50:56.262Z,1
2023-02-27T13:52:10.402Z,1
2023-02-27T13:53:24.710Z,1
2023-02-27T13:55:52.776Z,1
2023-02-27T13:57:06.983Z,1
2023-02-27T13:58:20.991Z,1
2023-02-27T14:00:49.294Z,1
2023-02-27T14:02:03.425Z,1
2023-02-27T14:03:17.610Z,1
2023-02-27T14:05:45.847Z,1
2023-02-27T14:06:59.982Z,1
2023-02-27T14:08:14.081Z,1
2023-02-27T14:10:42.368Z,1
2023-02-27T14:11:56.468Z,1
2023-02-27T14:13:10.644Z,1
2023-02-27T14:14:24.797Z,1
2023-02-27T14:16:53.009Z,1
2023-02-27T14:18:17.846Z,1
2023-02-27T14:19:21.252Z,1
2023-02-27T14:21:49.558Z,1
2023-02-27T14:23:03.799Z,1
2023-02-27T14:24:17.828Z,1
2023-02-27T14:26:46.168Z,1
2023-02-27T14:28:00.308Z,1
2023-02-27T14:29:14.345Z,1
2023-02-27T14:31:42.811Z,1
2023-02-27T14:32:56.730Z,1
2023-02-27T14:34:10.868Z,1
2023-02-27T14:35:25.097Z,4
2023-02-27T14:37:53.323Z,1
2023-02-27T14:39:07.462Z,1
2023-02-27T14:40:29.452Z,1
2023-02-27T14:42:49.885Z,10
2023-02-27T14:44:03.959Z,10
2023-02-27T14:45:20.023Z,10
2023-02-27T14:47:46.424Z,18
2023-02-27T14:49:00.527Z,13
2023-02-27T14:50:14.603Z,28
2023-02-27T14:52:42.898Z,3
2023-02-27T14:53:57.459Z,3
2023-02-27T14:55:11.145Z,1
2023-02-27T14:56:25.474Z,2
2023-02-27T14:59:03.591Z,1
2023-02-27T15:00:07.708Z,1
2023-02-27T15:01:21.836Z,2
2023-02-27T15:03:50.245Z,3
2023-02-27T15:05:04.230Z,1
2023-02-27T15:06:18.387Z,2
2023-02-27T15:08:46.684Z,2
2023-02-27T15:10:02.664Z,2
2023-02-27T15:11:14.916Z,2
2023-02-27T15:13:43.212Z,7
2023-02-27T15:14:57.380Z,5
2023-02-27T15:16:16.613Z,13
2023-02-27T15:17:25.547Z,6
2023-02-27T15:19:53.896Z,4
2023-02-27T15:21:07.976Z,2
2023-02-27T15:24:50.736Z,1
2023-02-27T15:26:04.482Z,2
2023-02-27T15:27:18.767Z,1
2023-02-27T15:29:46.908Z,2
2023-02-27T15:31:01.037Z,3
2023-02-27T15:32:15.215Z,3
2023-02-27T15:34:43.445Z,2
2023-02-27T15:35:57.646Z,2
2023-02-27T15:37:11.733Z,3
2023-02-27T15:38:25.817Z,2
2023-02-27T15:40:54.119Z,2
2023-02-27T15:42:08.232Z,4
2023-02-27T15:43:22.384Z,3
2023-02-27T15:45:50.678Z,3
2023-02-27T15:47:04.763Z,2
2023-02-27T15:48:18.870Z,2
2023-02-27T15:50:47.128Z,4
2023-02-27T15:52:01.279Z,3
2023-02-27T15:53:15.422Z,3
2023-02-27T15:55:43.677Z,2
2023-02-27T15:56:57.815Z,2
2023-02-27T15:58:11.965Z,2
2023-02-27T15:59:26.092Z,3
2023-02-27T16:01:54.358Z,2
2023-02-27T16:03:08.474Z,2
2023-02-27T16:04:22.605Z,2
2023-02-27T16:06:50.901Z,3
2023-02-27T16:08:04.986Z,2
2023-02-27T16:09:19.312Z,3
2023-02-27T16:11:47.475Z,3
2023-02-27T16:13:01.492Z,2
2023-02-27T16:14:15.669Z,3
2023-02-27T16:16:44.103Z,7
2023-02-27T16:17:58.082Z,9
2023-02-27T16:19:12.185Z,7
2023-02-27T16:21:40.544Z,11
2023-02-27T16:22:54.608Z,4
2023-02-27T16:24:08.742Z,13
2023-02-27T16:25:22.881Z,8
2023-02-27T16:27:51.181Z,4
2023-02-27T16:29:05.263Z,2
2023-02-27T16:30:19.481Z,6
2023-02-27T16:32:47.702Z,7
2023-02-27T16:34:01.787Z,4
2023-02-27T16:35:15.921Z,2
2023-02-27T16:37:44.243Z,4
2023-02-27T16:38:58.347Z,5
2023-02-27T16:40:12.674Z,5
2023-02-27T16:42:40.706Z,7
2023-02-27T16:43:54.949Z,24
2023-02-27T16:45:09.083Z,8
2023-02-27T16:46:23.218Z,3
2023-02-27T16:48:51.470Z,7
2023-02-27T16:50:05.510Z,4
2023-02-27T16:51:19.762Z,12
2023-02-27T16:53:47.950Z,4
2023-02-27T16:55:02.091Z,4
2023-02-27T16:56:17.064Z,4
2023-02-27T16:58:44.450Z,3
2023-02-27T16:59:58.619Z,3
2023-02-27T17:01:12.713Z,2
2023-02-27T17:03:41.041Z,3
2023-02-27T17:04:55.218Z,3
2023-02-27T17:06:09.248Z,3
2023-02-27T17:07:23.465Z,3
2023-02-27T17:09:51.640Z,4
2023-02-27T17:11:05.771Z,4
2023-02-27T17:12:20.016Z,3
2023-02-27T17:14:48.279Z,3
2023-02-27T17:16:02.313Z,3
2023-02-27T17:17:16.575Z,3
2023-02-27T17:19:44.902Z,3
2023-02-27T17:20:58.885Z,3
2023-02-27T17:22:13.026Z,3
2023-02-27T17:24:41.245Z,4
2023-02-27T17:25:55.377Z,5
2023-02-27T17:27:09.571Z,4
2023-02-27T17:28:23.813Z,5
2023-02-27T17:30:52.455Z,3
2023-02-27T17:32:06.109Z,3
2023-02-27T17:33:20.159Z,4
2023-02-27T17:35:48.514Z,6
2023-02-27T17:37:02.667Z,8
2023-02-27T17:38:16.726Z,6
2023-02-27T17:40:44.969Z,9
2023-02-27T17:41:59.218Z,10
2023-02-27T17:43:13.334Z,6
2023-02-27T17:45:41.491Z,7
2023-02-27T17:46:55.654Z,7
2023-02-27T17:48:09.791Z,9
2023-02-27T17:49:23.930Z,7
2023-02-27T17:51:52.218Z,12
2023-02-27T17:53:06.544Z,9
2023-02-27T17:54:20.417Z,8
2023-02-27T17:56:48.742Z,6
2023-02-27T17:58:02.902Z,5
2023-02-27T17:59:17.022Z,6
2023-02-27T18:01:45.295Z,6
2023-02-27T18:02:59.548Z,4
2023-02-27T18:04:13.570Z,5
2023-02-27T18:06:41.858Z,10
2023-02-27T18:07:55.938Z,7
2023-02-27T18:09:10.026Z,6
2023-02-27T18:10:24.166Z,6
2023-02-27T18:12:52.452Z,5
2023-02-27T18:14:06.557Z,6
2023-02-27T18:15:20.691Z,6
2023-02-27T18:17:48.999Z,9
2023-02-27T18:19:03.119Z,9
2023-02-27T18:20:17.215Z,6
2023-02-27T18:22:45.510Z,6
2023-02-27T18:23:59.717Z,6
2023-02-27T18:25:15.856Z,5
2023-02-27T18:26:30.617Z,6
2023-02-27T18:27:42.071Z,6
2023-02-27T18:28:56.222Z,6
2023-02-27T18:30:10.260Z,6
2023-02-27T18:31:24.556Z,6
2023-02-27T18:33:52.691Z,5
2023-02-27T18:35:06.928Z,5
2023-02-27T18:36:20.948Z,5
2023-02-27T18:38:49.405Z,5
2023-02-27T18:40:03.372Z,5
2023-02-27T18:41:17.509Z,4
2023-02-27T18:43:45.730Z,8
2023-02-27T18:44:59.913Z,6
2023-02-27T18:46:14.043Z,5
2023-02-27T18:48:42.328Z,6
2023-02-27T18:49:56.467Z,5
2023-02-27T18:51:10.513Z,5
2023-02-27T18:52:24.689Z,5
2023-02-27T18:54:53.027Z,5
2023-02-27T18:56:07.184Z,4
2023-02-27T18:57:21.206Z,4
2023-02-27T18:59:49.569Z,4
2023-02-27T19:01:03.702Z,4
2023-02-27T19:02:17.898Z,4
2023-02-27T19:04:46.020Z,4
2023-02-27T19:06:00.228Z,4
2023-02-27T19:07:14.301Z,4
2023-02-27T19:09:42.535Z,4
2023-02-27T19:10:56.664Z,4
2023-02-27T19:12:10.835Z,4
2023-02-27T19:13:24.960Z,4
2023-02-27T19:15:53.370Z,4
2023-02-27T19:17:07.393Z,4
2023-02-27T19:18:21.446Z,4
2023-02-27T19:20:49.754Z,4
2023-02-27T19:22:03.973Z,4
2023-02-27T19:23:18.091Z,4
2023-02-27T19:25:46.344Z,27
2023-02-27T19:27:00.386Z,29
2023-02-27T19:28:14.547Z,18
2023-02-27T19:30:42.795Z,6
2023-02-27T19:31:56.975Z,4
2023-02-27T19:33:11.072Z,4
2023-02-27T19:34:25.210Z,7
2023-02-27T19:36:53.504Z,4
2023-02-27T19:38:07.620Z,5
2023-02-27T19:39:21.714Z,4
2023-02-27T19:41:50.041Z,5
2023-02-27T19:43:04.143Z,5
2023-02-27T19:44:18.333Z,5
2023-02-27T19:46:46.627Z,5
2023-02-27T19:48:00.652Z,6
2023-02-27T19:49:14.797Z,5
2023-02-27T19:51:43.142Z,5
2023-02-27T19:52:57.223Z,5
2023-02-27T19:54:11.306Z,5
2023-02-27T19:55:25.456Z,4
2023-02-27T19:57:53.834Z,4
2023-02-27T19:59:07.965Z,4
2023-02-27T20:00:22.126Z,5
2023-02-27T20:02:50.249Z,4
2023-02-27T20:04:04.466Z,4
2023-02-27T20:05:18.801Z,4
2023-02-27T20:07:46.908Z,4
2023-02-27T20:09:00.933Z,4
2023-02-27T20:10:15.064Z,5
2023-02-27T20:12:43.335Z,5
2023-02-27T20:13:57.481Z,4
2023-02-27T20:15:11.699Z,4
2023-02-27T20:16:25.903Z,4
2023-02-27T20:18:54.078Z,5
2023-02-27T20:20:08.217Z,4
2023-02-27T20:21:22.269Z,5
2023-02-27T20:23:50.537Z,4
2023-02-27T20:25:04.680Z,4
2023-02-27T20:26:18.889Z,4
2023-02-27T20:28:47.095Z,4
2023-02-27T20:30:01.169Z,4
2023-02-27T20:31:15.547Z,5
2023-02-27T20:33:43.602Z,4
2023-02-27T20:34:57.728Z,4
2023-02-27T20:36:11.866Z,4
2023-02-27T20:38:40.155Z,4
2023-02-27T20:39:54.291Z,4
2023-02-27T20:41:08.405Z,4
2023-02-27T20:42:22.522Z,4
2023-02-27T20:44:50.764Z,5
2023-02-27T20:46:04.925Z,4
2023-02-27T20:47:19.057Z,4
2023-02-27T20:49:47.403Z,4
2023-02-27T20:51:01.444Z,4
2023-02-27T20:52:15.614Z,4
2023-02-27T20:54:43.864Z,5
2023-02-27T20:55:57.993Z,5
2023-02-27T20:57:12.121Z,4
2023-02-27T20:59:40.388Z,4
2023-02-27T21:00:54.635Z,4
2023-02-27T21:02:08.646Z,3
2023-02-27T21:03:22.860Z,4
2023-02-27T21:05:51.064Z,3
2023-02-27T21:07:05.183Z,4
2023-02-27T21:08:19.314Z,4
2023-02-27T21:10:47.683Z,4
2023-02-27T21:12:01.709Z,4
2023-02-27T21:13:15.846Z,3
2023-02-27T21:15:44.169Z,4
2023-02-27T21:16:58.269Z,4
2023-02-27T21:18:12.484Z,3
2023-02-27T21:20:40.645Z,3
2023-02-27T21:21:54.795Z,3
2023-02-27T21:23:08.959Z,4
2023-02-27T21:24:23.059Z,3
2023-02-27T21:26:51.319Z,4
2023-02-27T21:28:05.455Z,3
2023-02-27T21:29:19.610Z,4
2023-02-27T21:30:33.759Z,4
2023-02-27T21:31:47.916Z,3
2023-02-27T21:33:04.304Z,4
2023-02-27T21:34:16.155Z,4
2023-02-27T21:36:44.426Z,3
2023-02-27T21:37:58.548Z,4
2023-02-27T21:39:12.724Z,3
2023-02-27T21:41:40.884Z,3
2023-02-27T21:42:55.039Z,4
2023-02-27T21:44:09.177Z,4
2023-02-27T21:45:23.402Z,5
2023-02-27T21:47:51.554Z,6
2023-02-27T21:49:05.702Z,9
2023-02-27T21:50:19.895Z,8
2023-02-27T21:52:48.155Z,5
2023-02-27T21:54:02.214Z,4
2023-02-27T21:55:16.364Z,4
2023-02-27T21:57:44.627Z,3
2023-02-27T21:58:58.779Z,3
2023-02-27T22:00:12.946Z,4
2023-02-27T22:02:41.276Z,4
2023-02-27T22:03:55.299Z,4
2023-02-27T22:05:09.492Z,4
2023-02-27T22:06:23.658Z,4
2023-02-27T22:08:51.852Z,4
2023-02-27T22:10:05.957Z,4
2023-02-27T22:11:20.181Z,4
2023-02-27T22:13:48.478Z,4
2023-02-27T22:15:02.490Z,4
2023-02-27T22:16:16.750Z,4
2023-02-27T22:18:44.919Z,4
2023-02-27T22:19:59.009Z,4
2023-02-27T22:21:13.221Z,4
2023-02-27T22:23:41.410Z,4
2023-02-27T22:24:55.581Z,4
2023-02-27T22:26:09.745Z,4
2023-02-27T22:27:23.882Z,4
2023-02-27T22:29:52.083Z,4
2023-02-27T22:31:06.305Z,4
2023-02-27T22:32:20.419Z,4
2023-02-27T22:34:48.726Z,3
2023-02-27T22:36:02.882Z,4
2023-02-27T22:37:16.907Z,3
2023-02-27T22:39:45.155Z,4
2023-02-27T22:40:59.433Z,4
2023-02-27T22:42:13.425Z,3
2023-02-27T22:44:41.683Z,4
2023-02-27T22:45:55.825Z,4
2023-02-27T22:47:09.968Z,3
2023-02-27T22:48:24.113Z,3
2023-02-27T22:50:52.397Z,3
2023-02-27T22:52:06.501Z,4
2023-02-27T22:53:20.642Z,4
2023-02-27T22:55:48.949Z,4
2023-02-27T22:57:03.109Z,3
2023-02-27T22:58:17.140Z,4
2023-02-27T23:00:45.432Z,4
2023-02-27T23:01:59.683Z,4
2023-02-27T23:03:13.759Z,4
2023-02-27T23:05:41.921Z,4
2023-02-27T23:06:56.119Z,4
2023-02-27T23:08:10.186Z,4
2023-02-27T23:09:24.364Z,4
2023-02-27T23:11:52.626Z,4
2023-02-27T23:13:06.810Z,4
2023-02-27T23:14:20.847Z,4
2023-02-27T23:16:49.163Z,4
2023-02-27T23:18:03.325Z,4
2023-02-27T23:19:17.409Z,4
2023-02-27T23:21:45.668Z,4
2023-02-27T23:22:59.879Z,4
2023-02-27T23:24:13.925Z,4
2023-02-27T23:26:42.231Z,4
2023-02-27T23:27:56.352Z,4
2023-02-27T23:29:10.572Z,4
2023-02-27T23:30:24.582Z,4
2023-02-27T23:32:52.974Z,4
2023-02-27T23:34:07.089Z,4
2023-02-27T23:35:21.138Z,4
2023-02-27T23:37:49.428Z,4
2023-02-27T23:39:03.558Z,4
2023-02-27T23:40:17.659Z,4
2023-02-27T23:42:45.937Z,4
2023-02-27T23:44:00.104Z,4
2023-02-27T23:45:14.214Z,4
2023-02-27T23:47:42.524Z,4
2023-02-27T23:48:56.587Z,4
2023-02-27T23:50:10.725Z,4
2023-02-27T23:51:24.879Z,4
2023-02-27T23:53:53.217Z,4
2023-02-27T23:55:07.244Z,4